Terminal Aerodrome Forecast
Issued by NWS

Home | Current Version | Previous Version | Text Only | Print | Product List | Glossary On
Versions: 1 2 3 4 5 6 7 8 9 10 11 12 13 14 15 16 17 18 19 20
000
FTUS43 KBIS 241214 AAE
TAFDIK
TAF AMD
KDIK 241214Z 2412/2512 03005KT 5SM BR SCT002
      TEMPO 2412/2414 1SM BR
     FM241700 09005KT P6SM SCT100
     FM242200 12009KT P6SM SKC
     FM250600 15010KT P6SM SCT100=

USA.gov is the U.S. government's official web portal to all federal, state and local government web resources and services.